createdAt,value
2022-09-28T00:01:34.180Z,74.79
2022-09-28T00:06:37.719Z,74.42
2022-09-28T00:11:40.681Z,75.03
2022-09-28T00:16:44.779Z,75.74
2022-09-28T00:21:48.232Z,76.30
2022-09-28T00:26:56.972Z,76.69
2022-09-28T00:32:05.814Z,76.69
2022-09-28T00:37:09.614Z,76.89
2022-09-28T00:42:18.855Z,76.88
2022-09-28T00:47:27.450Z,76.92
2022-09-28T00:52:39.650Z,76.99
2022-09-28T00:57:47.639Z,77.07
2022-09-28T01:02:51.101Z,77.37
2022-09-28T01:07:57.236Z,77.51
2022-09-28T01:13:00.501Z,77.60
2022-09-28T01:18:06.150Z,77.66
2022-09-28T01:23:13.169Z,77.44
2022-09-28T01:28:19.716Z,78.08
2022-09-28T01:33:26.843Z,76.62
2022-09-28T01:38:40.294Z,75.60
2022-09-28T01:43:48.622Z,75.29
2022-09-28T01:48:58.240Z,75.11
2022-09-28T01:54:10.920Z,74.81
2022-09-28T01:59:17.579Z,74.81
2022-09-28T02:04:36.345Z,74.77
2022-09-28T02:09:44.822Z,74.73
2022-09-28T02:14:50.388Z,75.03
2022-09-28T02:19:53.293Z,74.64
2022-09-28T02:25:08.693Z,75.02
2022-09-28T02:30:12.001Z,74.62
2022-09-28T02:35:18.832Z,74.63
2022-09-28T02:40:29.381Z,74.74
2022-09-28T02:45:41.223Z,74.82
2022-09-28T02:51:06.082Z,75.15
2022-09-28T02:56:14.859Z,75.52
2022-09-28T03:01:41.534Z,75.41
2022-09-28T03:06:59.462Z,75.06
2022-09-28T03:12:08.882Z,75.02
2022-09-28T03:17:12.043Z,75.77
2022-09-28T03:22:14.843Z,76.76
2022-09-28T03:27:17.655Z,76.77
2022-09-28T03:32:20.547Z,77.03
2022-09-28T03:37:23.557Z,76.08
2022-09-28T03:42:26.459Z,76.51
2022-09-28T03:47:29.374Z,76.92
2022-09-28T03:52:32.680Z,77.03
2022-09-28T03:57:35.579Z,77.04
2022-09-28T04:02:38.653Z,77.01
2022-09-28T04:07:41.593Z,75.72
2022-09-28T04:12:46.150Z,76.23
2022-09-28T04:17:49.042Z,76.35
2022-09-28T04:22:51.943Z,76.40
2022-09-28T04:28:13.383Z,75.89
2022-09-28T04:33:16.287Z,75.67
2022-09-28T04:38:35.619Z,75.57
2022-09-28T04:43:42.063Z,75.89
2022-09-28T04:48:45.674Z,75.70
2022-09-28T04:53:48.495Z,75.20
2022-09-28T04:58:52.842Z,75.12
2022-09-28T05:03:56.496Z,75.36
2022-09-28T05:08:59.556Z,76.16
2022-09-28T05:14:02.738Z,75.45
2022-09-28T05:19:06.591Z,76.05
2022-09-28T05:24:10.806Z,75.42
2022-09-28T05:29:13.755Z,74.80
2022-09-28T05:34:16.594Z,74.96
2022-09-28T05:39:19.436Z,76.09
2022-09-28T05:44:22.337Z,76.32
2022-09-28T05:49:25.144Z,76.42
2022-09-28T05:54:28.042Z,76.73
2022-09-28T05:59:31.158Z,76.51
2022-09-28T06:04:34.057Z,76.51
2022-09-28T06:09:36.856Z,76.55
2022-09-28T06:14:40.475Z,76.90
2022-09-28T06:19:44.303Z,76.90
2022-09-28T06:24:47.126Z,76.67
2022-09-28T06:29:50.008Z,76.25
2022-09-28T06:34:56.175Z,76.28
2022-09-28T06:39:59.502Z,76.17
2022-09-28T06:45:03.022Z,75.50
2022-09-28T06:50:15.246Z,75.51
2022-09-28T06:55:18.151Z,75.35
2022-09-28T07:00:21.057Z,75.47
2022-09-28T07:05:27.555Z,75.52
2022-09-28T07:10:31.906Z,75.58
2022-09-28T07:15:34.663Z,74.91
2022-09-28T07:20:48.652Z,74.35
2022-09-28T07:25:54.936Z,74.38
2022-09-28T07:30:58.413Z,74.57
2022-09-28T07:36:06.592Z,74.70
2022-09-28T07:41:12.342Z,73.77
2022-09-28T07:46:17.047Z,72.95
2022-09-28T07:51:21.383Z,73.80
2022-09-28T07:56:25.562Z,73.97
2022-09-28T08:01:30.935Z,74.55
2022-09-28T08:06:33.824Z,74.61
2022-09-28T08:11:36.732Z,74.93
2022-09-28T08:16:39.777Z,75.12
2022-09-28T08:21:45.202Z,74.81
2022-09-28T08:26:48.615Z,74.76
2022-09-28T08:31:51.520Z,74.78
2022-09-28T08:36:57.433Z,74.38
2022-09-28T08:42:03.270Z,74.29
2022-09-28T08:47:33.612Z,74.15
2022-09-28T08:52:40.701Z,73.39
2022-09-28T08:57:52.635Z,73.28
2022-09-28T09:02:56.545Z,71.41
2022-09-28T09:08:13.185Z,72.48
2022-09-28T09:13:40.768Z,71.76
2022-09-28T09:18:52.477Z,71.56
2022-09-28T09:23:57.946Z,70.82
2022-09-28T09:29:18.970Z,69.31
2022-09-28T09:34:41.842Z,69.12
2022-09-28T09:39:55.914Z,69.23
2022-09-28T09:45:25.338Z,68.17
2022-09-28T09:50:39.533Z,67.00
2022-09-28T09:55:45.683Z,66.05
2022-09-28T10:00:52.834Z,64.37
2022-09-28T10:06:00.501Z,60.97
2022-09-28T10:11:08.569Z,61.22
2022-09-28T10:16:11.671Z,62.28
2022-09-28T10:21:17.005Z,61.61
2022-09-28T10:26:25.518Z,61.93
2022-09-28T10:31:42.227Z,62.59
2022-09-28T10:36:52.733Z,61.97
2022-09-28T10:41:56.002Z,61.62
2022-09-28T10:47:04.269Z,60.75
2022-09-28T10:52:33.097Z,60.16
2022-09-28T10:57:37.660Z,60.36
2022-09-28T11:02:42.753Z,63.03
2022-09-28T11:07:48.138Z,61.65
2022-09-28T11:12:52.294Z,60.21
2022-09-28T11:17:55.500Z,59.24
2022-09-28T11:23:06.513Z,60.31
2022-09-28T11:28:24.352Z,62.15
2022-09-28T11:33:36.474Z,62.46
2022-09-28T11:38:57.704Z,61.28
2022-09-28T11:44:15.706Z,61.05
2022-09-28T11:49:33.115Z,60.49
2022-09-28T11:54:52.598Z,59.42
2022-09-28T12:00:07.894Z,60.73
2022-09-28T12:05:17.073Z,61.85
2022-09-28T12:10:35.671Z,59.14
2022-09-28T12:16:12.948Z,58.74
2022-09-28T12:21:27.713Z,59.03
2022-09-28T12:26:42.086Z,59.40
2022-09-28T12:31:45.004Z,59.75
2022-09-28T12:36:53.831Z,59.90
2022-09-28T12:42:22.591Z,60.21
2022-09-28T12:47:31.176Z,61.01
2022-09-28T12:52:57.040Z,61.79
2022-09-28T12:58:08.221Z,61.39
2022-09-28T13:03:35.600Z,61.15
2022-09-28T13:08:55.404Z,60.34
2022-09-28T13:14:21.441Z,59.81
2022-09-28T13:19:29.795Z,60.48
2022-09-28T13:24:37.532Z,61.46
2022-09-28T13:29:42.553Z,61.84
2022-09-28T13:34:50.691Z,61.91
2022-09-28T13:40:06.263Z,61.99
2022-09-28T13:45:21.157Z,61.89
2022-09-28T13:50:27.852Z,62.34
2022-09-28T13:55:56.369Z,61.85
2022-09-28T14:01:11.923Z,59.35
2022-09-28T14:06:31.555Z,59.25
2022-09-28T14:11:35.019Z,59.37
2022-09-28T14:16:39.902Z,59.82
2022-09-28T14:22:16.925Z,60.73
2022-09-28T14:27:43.894Z,61.07
2022-09-28T14:32:57.883Z,61.74
2022-09-28T14:38:24.619Z,63.28
2022-09-28T14:43:45.650Z,62.63
2022-09-28T14:48:54.633Z,60.18
2022-09-28T14:54:13.444Z,58.65
2022-09-28T14:59:25.381Z,60.13
2022-09-28T15:04:31.207Z,59.74
2022-09-28T15:09:36.602Z,60.64
2022-09-28T15:14:59.497Z,62.08
2022-09-28T15:20:30.151Z,63.82
2022-09-28T15:25:34.170Z,63.71
2022-09-28T15:30:38.494Z,62.30
2022-09-28T15:35:42.954Z,61.42
2022-09-28T15:40:47.708Z,61.20
2022-09-28T15:46:04.264Z,61.05
2022-09-28T15:51:11.991Z,61.25
2022-09-28T15:56:16.109Z,61.92
2022-09-28T16:01:50.769Z,62.96
2022-09-28T16:07:12.578Z,63.87
2022-09-28T16:12:15.478Z,64.47
2022-09-28T16:17:33.481Z,65.39
2022-09-28T16:22:38.286Z,66.49
2022-09-28T16:27:44.724Z,67.44
2022-09-28T16:32:54.844Z,67.75
2022-09-28T16:37:59.395Z,68.90
2022-09-28T16:43:06.198Z,69.53
2022-09-28T16:48:14.321Z,70.17
2022-09-28T16:53:36.995Z,68.80
2022-09-28T16:58:39.989Z,70.03
2022-09-28T17:03:47.027Z,70.71
2022-09-28T17:08:50.297Z,71.11
2022-09-28T17:14:00.252Z,70.35
2022-09-28T17:19:03.177Z,71.16
2022-09-28T17:24:06.590Z,71.31
2022-09-28T17:29:14.533Z,70.58
2022-09-28T17:34:18.235Z,69.50
2022-09-28T17:39:21.444Z,69.51
2022-09-28T17:44:24.758Z,70.44
2022-09-28T17:49:28.174Z,69.56
2022-09-28T17:54:31.080Z,69.10
2022-09-28T17:59:33.981Z,71.77
2022-09-28T18:04:51.362Z,72.08
2022-09-28T18:09:56.994Z,71.87
2022-09-28T18:14:59.795Z,70.03
2022-09-28T18:20:02.702Z,70.05
2022-09-28T18:25:06.620Z,69.26
2022-09-28T18:30:10.228Z,69.92
2022-09-28T18:35:13.202Z,71.89
2022-09-28T18:40:16.514Z,71.73
2022-09-28T18:45:19.474Z,71.36
2022-09-28T18:50:22.273Z,69.99
2022-09-28T18:55:28.965Z,71.55
2022-09-28T19:00:31.870Z,71.02
2022-09-28T19:05:35.294Z,71.30
2022-09-28T19:10:38.199Z,71.88
2022-09-28T19:15:41.019Z,72.72
2022-09-28T19:20:44.816Z,72.45
2022-09-28T19:25:47.622Z,72.55
2022-09-28T19:36:12.322Z,72.56
2022-09-28T19:41:43.132Z,71.68
2022-09-28T19:46:47.161Z,71.63
2022-09-28T19:52:14.187Z,70.41
2022-09-28T19:57:19.793Z,70.55
2022-09-28T20:02:23.070Z,70.78
2022-09-28T20:07:26.013Z,71.08
2022-09-28T20:12:29.127Z,71.71
2022-09-28T20:17:32.028Z,72.53
2022-09-28T20:22:34.827Z,73.56
2022-09-28T20:27:39.473Z,73.63
2022-09-28T20:32:45.093Z,73.64
2022-09-28T20:37:52.042Z,73.86
2022-09-28T20:42:55.456Z,74.15
2022-09-28T20:48:04.604Z,74.08
2022-09-28T20:53:07.402Z,73.81
2022-09-28T20:58:10.309Z,74.16
2022-09-28T21:03:13.149Z,75.13
2022-09-28T21:08:16.123Z,75.18
2022-09-28T21:13:19.025Z,75.14
2022-09-28T21:18:22.848Z,75.09
2022-09-28T21:23:25.651Z,74.78
2022-09-28T21:28:28.666Z,74.47
2022-09-28T21:33:32.010Z,74.04
2022-09-28T21:38:35.080Z,74.62
2022-09-28T21:43:37.983Z,74.87
2022-09-28T21:48:41.192Z,75.35
2022-09-28T21:53:44.206Z,76.01
2022-09-28T21:58:47.410Z,75.99
2022-09-28T22:03:53.828Z,76.12
2022-09-28T22:08:57.711Z,76.17
2022-09-28T22:14:00.737Z,76.56
2022-09-28T22:19:03.740Z,76.71
2022-09-28T22:24:07.555Z,76.32
2022-09-28T22:29:10.979Z,76.73
2022-09-28T22:34:13.881Z,77.02
2022-09-28T22:39:16.795Z,77.00
2022-09-28T22:44:20.307Z,76.88
2022-09-28T22:49:23.924Z,77.15
2022-09-28T22:54:27.135Z,77.42
2022-09-28T22:59:30.041Z,77.09
2022-09-28T23:04:33.048Z,76.93
2022-09-28T23:09:36.260Z,76.88
2022-09-28T23:14:39.058Z,76.61
2022-09-28T23:19:41.963Z,76.85
2022-09-28T23:24:44.871Z,76.86
2022-09-28T23:29:49.117Z,76.60
2022-09-28T23:34:52.016Z,75.96
2022-09-28T23:39:54.912Z,75.16
2022-09-28T23:44:57.871Z,74.10
2022-09-28T23:50:00.719Z,74.16
2022-09-28T23:55:04.240Z,73.55
